createdAt,value
2024-02-06T00:00:15.574Z,5.74
2024-02-06T00:02:48.577Z,5.74
2024-02-06T00:05:20.648Z,5.63
2024-02-06T00:07:53.222Z,5.84
2024-02-06T00:10:26.617Z,6.35
2024-02-06T00:12:59.358Z,6.07
2024-02-06T00:15:31.328Z,5.77
2024-02-06T00:18:04.244Z,5.93
2024-02-06T00:20:36.722Z,5.94
2024-02-06T00:23:09.564Z,5.91
2024-02-06T00:25:41.538Z,5.76
2024-02-06T00:28:14.072Z,5.94
2024-02-06T00:30:46.134Z,5.80
2024-02-06T00:36:45.827Z,5.94
2024-02-06T00:39:18.197Z,5.84
2024-02-06T00:41:50.204Z,5.87
2024-02-06T00:44:23.005Z,6.05
2024-02-06T00:46:54.945Z,5.92
2024-02-06T00:49:27.580Z,5.95
2024-02-06T00:51:59.622Z,5.85
2024-02-06T00:54:31.998Z,5.76
2024-02-06T00:57:04.621Z,5.90
2024-02-06T00:59:37.160Z,5.71
2024-02-06T01:02:09.270Z,5.86
2024-02-06T01:04:41.969Z,6.14
2024-02-06T01:07:14.149Z,6.09
2024-02-06T01:09:49.830Z,5.94
2024-02-06T01:12:22.015Z,5.97
2024-02-06T01:14:56.633Z,5.80
2024-02-06T01:17:29.106Z,6.04
2024-02-06T01:20:01.937Z,5.89
2024-02-06T01:22:34.089Z,5.78
2024-02-06T01:25:06.773Z,5.72
2024-02-06T01:27:39.437Z,5.90
2024-02-06T01:30:13.150Z,5.91
2024-02-06T01:32:45.508Z,5.83
2024-02-06T01:35:18.714Z,5.87
2024-02-06T01:37:50.706Z,5.81
2024-02-06T01:40:23.139Z,6.02
2024-02-06T01:42:55.591Z,6.05
2024-02-06T01:45:28.392Z,6.10
2024-02-06T01:48:00.927Z,5.87
2024-02-06T01:50:33.492Z,5.82
2024-02-06T01:53:07.258Z,5.84
2024-02-06T01:55:40.097Z,5.80
2024-02-06T01:58:12.487Z,5.83
2024-02-06T02:00:45.840Z,7.92
2024-02-06T02:03:18.282Z,6.80
2024-02-06T02:05:51.424Z,6.33
2024-02-06T02:08:24.188Z,6.43
2024-02-06T02:10:56.626Z,6.58
2024-02-06T02:13:28.620Z,6.55
2024-02-06T02:16:01.476Z,6.63
2024-02-06T02:18:37.729Z,6.31
2024-02-06T02:21:14.409Z,6.30
2024-02-06T02:23:47.153Z,6.41
2024-02-06T02:26:19.935Z,7.07
2024-02-06T02:28:52.476Z,7.38
2024-02-06T02:31:26.429Z,7.50
2024-02-06T02:33:58.935Z,7.63
2024-02-06T02:36:31.749Z,7.62
2024-02-06T02:39:03.756Z,7.67
2024-02-06T02:41:36.941Z,7.77
2024-02-06T02:44:09.271Z,7.49
2024-02-06T02:46:42.165Z,7.71
2024-02-06T02:49:15.125Z,7.44
2024-02-06T02:51:47.453Z,7.49
2024-02-06T02:54:20.989Z,7.19
2024-02-06T02:56:53.776Z,6.97
2024-02-06T02:59:25.689Z,6.72
2024-02-06T03:01:58.125Z,6.55
2024-02-06T03:04:30.159Z,6.69
2024-02-06T03:07:02.561Z,6.57
2024-02-06T03:09:36.500Z,6.47
2024-02-06T03:12:09.026Z,6.20
2024-02-06T03:14:41.122Z,6.09
2024-02-06T03:20:27.304Z,6.05
2024-02-06T03:23:01.085Z,6.26
2024-02-06T03:25:33.601Z,6.38
2024-02-06T03:28:06.256Z,6.18
2024-02-06T03:30:38.360Z,6.60
2024-02-06T03:33:11.244Z,6.72
2024-02-06T03:35:44.689Z,7.09
2024-02-06T03:38:19.992Z,6.90
2024-02-06T03:40:51.953Z,7.25
2024-02-06T03:43:24.899Z,7.18
2024-02-06T03:45:56.881Z,7.16
2024-02-06T03:48:29.489Z,7.13
2024-02-06T03:51:04.536Z,7.11
2024-02-06T03:53:37.302Z,7.08
2024-02-06T03:56:09.705Z,6.95
2024-02-06T03:58:42.269Z,6.82
2024-02-06T04:01:14.406Z,6.70
2024-02-06T04:03:47.201Z,6.63
2024-02-06T04:06:20.488Z,6.57
2024-02-06T04:08:53.066Z,6.59
2024-02-06T04:11:25.508Z,6.70
2024-02-06T04:13:57.886Z,6.61
2024-02-06T04:16:29.940Z,6.52
2024-02-06T04:19:02.451Z,6.58
2024-02-06T04:21:34.869Z,6.41
2024-02-06T04:24:10.134Z,6.56
2024-02-06T04:26:42.283Z,6.25
2024-02-06T04:29:14.970Z,6.49
2024-02-06T04:31:49.252Z,6.45
2024-02-06T04:34:21.837Z,6.41
2024-02-06T04:36:53.891Z,6.55
2024-02-06T04:39:26.304Z,6.62
2024-02-06T04:41:58.645Z,6.65
2024-02-06T04:44:31.494Z,6.72
2024-02-06T04:47:03.530Z,6.67
2024-02-06T04:49:36.297Z,6.64
2024-02-06T04:52:08.519Z,6.83
2024-02-06T04:54:41.314Z,6.84
2024-02-06T04:57:13.342Z,6.65
2024-02-06T04:59:45.810Z,6.74
2024-02-06T05:02:19.328Z,6.74
2024-02-06T05:04:53.525Z,6.79
2024-02-06T05:07:25.746Z,6.82
2024-02-06T05:09:58.237Z,6.84
2024-02-06T05:12:30.273Z,6.79
2024-02-06T05:15:03.058Z,6.86
2024-02-06T05:17:35.480Z,6.84
2024-02-06T05:20:11.956Z,6.65
2024-02-06T05:22:44.707Z,6.82
2024-02-06T05:25:17.900Z,6.84
2024-02-06T05:27:51.466Z,6.80
2024-02-06T05:30:24.832Z,6.88
2024-02-06T05:32:56.855Z,6.90
2024-02-06T05:35:29.674Z,6.97
2024-02-06T05:38:02.021Z,7.00
2024-02-06T05:40:34.657Z,6.86
2024-02-06T05:43:06.929Z,6.94
2024-02-06T05:46:21.923Z,6.95
2024-02-06T05:48:55.462Z,6.97
2024-02-06T05:51:27.959Z,7.00
2024-02-06T05:54:00.376Z,6.86
2024-02-06T05:56:33.107Z,6.90
2024-02-06T05:59:05.584Z,6.76
2024-02-06T06:01:38.202Z,6.90
2024-02-06T06:04:11.111Z,6.79
2024-02-06T06:06:43.980Z,6.71
2024-02-06T06:09:16.055Z,6.76
2024-02-06T06:11:48.401Z,6.64
2024-02-06T06:14:20.792Z,6.62
2024-02-06T06:16:55.244Z,6.43
2024-02-06T06:19:28.469Z,6.69
2024-02-06T06:22:08.276Z,6.42
2024-02-06T06:24:40.376Z,6.49
2024-02-06T06:27:13.427Z,6.57
2024-02-06T06:29:48.681Z,6.53
2024-02-06T06:32:21.933Z,6.23
2024-02-06T06:34:54.060Z,6.42
2024-02-06T06:37:26.520Z,6.32
2024-02-06T06:39:59.128Z,6.37
2024-02-06T06:48:00.854Z,6.34
2024-02-06T06:50:34.163Z,6.28
2024-02-06T06:53:08.817Z,6.13
2024-02-06T06:55:42.292Z,6.20
2024-02-06T06:58:14.611Z,6.08
2024-02-06T07:00:47.394Z,6.10
2024-02-06T07:03:20.825Z,6.09
2024-02-06T07:05:55.465Z,6.11
2024-02-06T07:08:34.906Z,6.10
2024-02-06T07:11:08.359Z,6.09
2024-02-06T07:13:41.038Z,6.15
2024-02-06T07:16:14.077Z,6.22
2024-02-06T07:18:46.323Z,6.20
2024-02-06T07:21:18.736Z,6.32
2024-02-06T07:23:51.072Z,6.26
2024-02-06T07:26:23.936Z,6.34
2024-02-06T07:28:56.572Z,6.28
2024-02-06T07:31:29.169Z,6.45
2024-02-06T07:34:01.797Z,6.32
2024-02-06T07:36:34.706Z,6.55
2024-02-06T07:39:07.939Z,6.67
2024-02-06T07:41:41.475Z,6.55
2024-02-06T07:44:13.877Z,6.67
2024-02-06T07:46:46.914Z,6.88
2024-02-06T07:49:19.688Z,6.84
2024-02-06T07:51:52.795Z,6.86
2024-02-06T07:54:25.259Z,6.60
2024-02-06T07:56:58.213Z,6.57
2024-02-06T07:59:31.060Z,6.57
2024-02-06T08:02:03.830Z,6.53
2024-02-06T08:04:36.390Z,6.67
2024-02-06T08:07:09.082Z,6.59
2024-02-06T08:09:41.838Z,6.67
2024-02-06T08:12:15.656Z,6.62
2024-02-06T08:14:48.519Z,6.75
2024-02-06T08:17:22.797Z,6.68
2024-02-06T08:19:55.506Z,6.80
2024-02-06T08:22:27.992Z,6.64
2024-02-06T08:25:00.092Z,6.73
2024-02-06T08:27:32.617Z,7.02
2024-02-06T08:30:06.823Z,7.09
2024-02-06T08:32:39.386Z,7.01
2024-02-06T08:35:11.498Z,7.22
2024-02-06T08:37:44.080Z,7.16
2024-02-06T08:40:17.253Z,7.31
2024-02-06T08:43:02.923Z,7.16
2024-02-06T08:45:35.929Z,7.53
2024-02-06T08:48:09.715Z,7.37
2024-02-06T08:50:44.203Z,7.25
2024-02-06T08:53:18.167Z,7.44
2024-02-06T08:55:50.741Z,7.25
2024-02-06T08:58:24.716Z,6.98
2024-02-06T09:00:58.307Z,7.07
2024-02-06T09:03:30.828Z,7.35
2024-02-06T09:06:03.041Z,7.99
2024-02-06T09:08:35.730Z,8.23
2024-02-06T09:11:09.139Z,7.56
2024-02-06T09:13:41.607Z,7.85
2024-02-06T09:16:13.672Z,7.75
2024-02-06T09:18:46.439Z,7.74
2024-02-06T09:21:18.742Z,8.21
2024-02-06T09:23:51.336Z,8.10
2024-02-06T09:26:23.446Z,8.03
2024-02-06T09:28:56.090Z,7.89
2024-02-06T09:31:28.197Z,7.86
2024-02-06T09:34:02.135Z,7.92
2024-02-06T09:36:34.793Z,8.31
2024-02-06T09:39:11.557Z,8.25
2024-02-06T09:41:46.899Z,8.69
2024-02-06T09:44:19.050Z,8.93
2024-02-06T09:46:53.258Z,8.83
2024-02-06T09:49:25.758Z,8.87
2024-02-06T09:51:58.764Z,8.91
2024-02-06T09:54:34.260Z,8.54
2024-02-06T09:57:08.063Z,8.87
2024-02-06T09:59:41.452Z,9.18
2024-02-06T10:02:18.293Z,8.79
2024-02-06T10:04:54.574Z,8.92
2024-02-06T10:07:27.480Z,9.03
2024-02-06T10:10:00.946Z,8.99
2024-02-06T10:12:32.988Z,8.96
2024-02-06T10:15:06.070Z,8.93
2024-02-06T10:17:42.139Z,8.70
2024-02-06T10:20:15.233Z,8.82
2024-02-06T10:22:48.528Z,8.78
2024-02-06T10:25:21.062Z,8.54
2024-02-06T10:27:59.754Z,9.10
2024-02-06T10:30:35.854Z,9.06
2024-02-06T10:33:15.779Z,9.21
2024-02-06T10:35:49.442Z,9.31
2024-02-06T10:38:21.901Z,9.67
2024-02-06T10:41:05.746Z,9.55
2024-02-06T10:43:47.420Z,10.20
2024-02-06T10:46:25.503Z,9.70
2024-02-06T10:49:06.947Z,10.04
2024-02-06T10:51:39.508Z,10.26
2024-02-06T10:54:11.892Z,9.52
2024-02-06T10:56:54.047Z,9.52
2024-02-06T10:59:55.136Z,9.57
2024-02-06T11:02:35.329Z,9.78
2024-02-06T11:05:22.853Z,10.36
2024-02-06T11:08:03.490Z,10.06
2024-02-06T11:10:45.725Z,9.93
2024-02-06T11:13:26.626Z,9.95
2024-02-06T11:16:04.174Z,10.14
2024-02-06T11:19:01.260Z,10.19
2024-02-06T11:21:45.250Z,9.86
2024-02-06T11:24:21.390Z,9.78
2024-02-06T11:26:53.927Z,10.12
2024-02-06T11:29:26.896Z,10.15
2024-02-06T11:31:59.393Z,10.60
2024-02-06T11:34:32.175Z,10.67
2024-02-06T11:37:04.339Z,10.34
2024-02-06T11:39:38.252Z,10.50
2024-02-06T11:42:10.803Z,10.19
2024-02-06T11:44:44.303Z,10.28
2024-02-06T11:47:22.716Z,10.02
2024-02-06T11:49:56.763Z,9.86
2024-02-06T11:52:29.281Z,9.75
2024-02-06T11:55:02.100Z,10.04
2024-02-06T11:57:34.915Z,10.46
2024-02-06T12:00:11.389Z,10.26
2024-02-06T12:02:52.792Z,10.04
2024-02-06T12:05:26.444Z,10.18
2024-02-06T12:08:02.753Z,10.28
2024-02-06T12:10:38.009Z,10.37
2024-02-06T12:13:12.577Z,9.97
2024-02-06T12:15:45.656Z,9.81
2024-02-06T12:18:18.024Z,9.93
2024-02-06T12:20:51.065Z,9.74
2024-02-06T12:23:23.807Z,9.87
2024-02-06T12:25:56.670Z,9.85
2024-02-06T12:28:28.739Z,10.12
2024-02-06T12:31:02.298Z,10.35
2024-02-06T12:33:37.139Z,10.23
2024-02-06T12:36:11.128Z,10.54
2024-02-06T12:38:43.202Z,10.35
2024-02-06T12:41:16.542Z,10.19
2024-02-06T12:43:53.830Z,10.09
2024-02-06T12:46:26.760Z,10.71
2024-02-06T12:48:59.959Z,10.73
2024-02-06T12:51:33.196Z,10.85
2024-02-06T12:54:05.633Z,11.21
2024-02-06T12:56:38.410Z,11.81
2024-02-06T12:59:20.425Z,11.64
2024-02-06T13:02:08.400Z,10.71
2024-02-06T13:04:41.361Z,11.41
2024-02-06T13:07:21.866Z,11.16
2024-02-06T13:10:07.186Z,10.85
2024-02-06T13:12:44.582Z,10.31
2024-02-06T13:15:19.003Z,10.44
2024-02-06T13:17:52.534Z,10.92
2024-02-06T13:20:24.983Z,11.06
2024-02-06T13:23:08.404Z,10.91
2024-02-06T13:25:41.953Z,10.38
2024-02-06T13:28:14.209Z,10.63
2024-02-06T13:30:46.918Z,10.45
2024-02-06T13:33:19.078Z,10.59
2024-02-06T13:35:51.987Z,10.62
2024-02-06T13:38:24.550Z,10.35
2024-02-06T13:40:57.249Z,10.05
2024-02-06T13:43:30.095Z,10.31
2024-02-06T13:46:03.456Z,10.23
2024-02-06T13:48:36.318Z,10.23
2024-02-06T13:51:11.032Z,10.05
2024-02-06T13:53:43.140Z,9.92
2024-02-06T13:56:17.175Z,10.24
2024-02-06T13:58:49.479Z,10.30
2024-02-06T14:01:25.392Z,10.36
2024-02-06T14:03:57.965Z,10.38
2024-02-06T14:06:30.794Z,10.32
2024-02-06T14:09:05.634Z,10.42
2024-02-06T14:11:39.292Z,10.28
2024-02-06T14:14:11.776Z,10.27
2024-02-06T14:16:45.188Z,10.17
2024-02-06T14:19:17.400Z,10.26
2024-02-06T14:21:50.373Z,10.24
2024-02-06T14:24:24.652Z,10.33
2024-02-06T14:26:58.885Z,9.95
2024-02-06T14:29:31.355Z,10.03
2024-02-06T14:32:04.151Z,9.80
2024-02-06T14:34:36.810Z,9.99
2024-02-06T14:37:09.752Z,9.94
2024-02-06T14:39:43.092Z,9.96
2024-02-06T14:42:15.770Z,10.09
2024-02-06T14:44:52.240Z,10.06
2024-02-06T14:47:25.483Z,9.86
2024-02-06T14:49:58.014Z,10.03
2024-02-06T14:52:38.246Z,9.89
2024-02-06T14:55:10.987Z,9.94
2024-02-06T14:57:43.778Z,9.86
2024-02-06T15:00:17.040Z,9.97
2024-02-06T15:02:50.408Z,9.70
2024-02-06T15:06:20.191Z,9.94
2024-02-06T15:08:56.082Z,9.79
2024-02-06T15:11:28.864Z,9.91
2024-02-06T15:14:01.384Z,9.76
2024-02-06T15:16:33.624Z,9.76
2024-02-06T15:19:06.640Z,9.82
2024-02-06T15:21:40.293Z,9.93
2024-02-06T15:24:12.996Z,9.67
2024-02-06T15:26:45.417Z,9.95
2024-02-06T15:29:18.288Z,9.86
2024-02-06T15:31:50.912Z,9.96
2024-02-06T15:34:23.780Z,9.94
2024-02-06T15:36:57.209Z,10.00
2024-02-06T15:39:30.065Z,9.84
2024-02-06T15:42:02.167Z,9.76
2024-02-06T15:44:36.133Z,9.73
2024-02-06T15:47:08.458Z,9.94
2024-02-06T15:49:41.349Z,9.72
2024-02-06T15:52:14.051Z,9.74
2024-02-06T15:54:47.358Z,9.83
2024-02-06T15:57:22.620Z,9.89
2024-02-06T15:59:55.643Z,9.91
2024-02-06T16:02:30.364Z,9.80
2024-02-06T16:05:06.013Z,9.81
2024-02-06T16:07:38.304Z,9.60
2024-02-06T16:10:11.189Z,9.65
2024-02-06T16:12:50.109Z,9.78
2024-02-06T16:15:27.604Z,9.85
2024-02-06T16:17:59.788Z,9.67
2024-02-06T16:20:32.811Z,9.64
2024-02-06T16:23:05.208Z,9.66
2024-02-06T16:25:38.464Z,9.61
2024-02-06T16:28:11.674Z,9.55
2024-02-06T16:30:45.061Z,9.73
2024-02-06T16:33:17.804Z,9.60
2024-02-06T16:35:50.671Z,9.58
2024-02-06T16:38:23.764Z,9.79
2024-02-06T16:40:56.904Z,9.69
2024-02-06T16:43:29.335Z,9.75
2024-02-06T16:46:02.124Z,9.66
2024-02-06T16:48:34.742Z,9.69
2024-02-06T16:51:15.380Z,9.48
2024-02-06T16:53:48.952Z,9.56
2024-02-06T16:56:21.367Z,9.53
2024-02-06T16:58:54.101Z,9.65
2024-02-06T17:01:26.169Z,9.58
2024-02-06T17:03:58.965Z,9.54
2024-02-06T17:06:30.994Z,9.57
2024-02-06T17:09:04.282Z,9.67
2024-02-06T17:11:36.366Z,9.55
2024-02-06T17:14:08.707Z,9.52
2024-02-06T17:16:46.115Z,9.50
2024-02-06T17:19:19.223Z,9.50
2024-02-06T17:21:52.597Z,9.52
2024-02-06T17:24:25.305Z,9.45
2024-02-06T17:26:57.819Z,9.53
2024-02-06T17:29:31.767Z,9.46
2024-02-06T17:32:04.353Z,9.44
2024-02-06T17:34:37.277Z,9.42
2024-02-06T17:37:10.015Z,9.46
2024-02-06T17:39:43.010Z,9.31
2024-02-06T17:42:14.945Z,9.42
2024-02-06T17:44:47.685Z,9.38
2024-02-06T17:47:20.212Z,9.49
2024-02-06T17:49:53.123Z,9.49
2024-02-06T17:52:25.256Z,9.45
2024-02-06T17:54:58.275Z,9.38
2024-02-06T17:57:31.868Z,9.40
2024-02-06T18:00:07.497Z,9.35
2024-02-06T18:02:51.438Z,9.42
2024-02-06T18:05:28.185Z,9.37
2024-02-06T18:08:01.685Z,9.27
2024-02-06T18:10:34.100Z,9.16
2024-02-06T18:13:06.149Z,9.15
2024-02-06T18:15:39.427Z,9.28
2024-02-06T18:18:12.037Z,9.22
2024-02-06T18:20:45.079Z,9.20
2024-02-06T18:23:17.006Z,9.07
2024-02-06T18:25:49.995Z,9.02
2024-02-06T18:28:22.023Z,9.03
2024-02-06T18:30:56.469Z,9.12
2024-02-06T18:33:28.923Z,9.09
2024-02-06T18:36:01.953Z,8.97
2024-02-06T18:38:33.861Z,9.07
2024-02-06T18:41:07.303Z,8.92
2024-02-06T18:43:40.587Z,9.01
2024-02-06T18:46:13.704Z,9.06
2024-02-06T18:48:46.654Z,8.97
2024-02-06T18:51:20.942Z,9.02
2024-02-06T18:53:55.132Z,8.96
2024-02-06T18:56:28.306Z,8.73
2024-02-06T18:59:00.260Z,8.93
2024-02-06T19:01:33.267Z,8.78
2024-02-06T19:04:05.812Z,9.08
2024-02-06T19:06:38.593Z,8.90
2024-02-06T19:09:12.768Z,8.96
2024-02-06T19:11:45.985Z,8.93
2024-02-06T19:14:17.993Z,8.90
2024-02-06T19:16:51.204Z,8.97
2024-02-06T19:19:23.300Z,9.07
2024-02-06T19:21:55.982Z,8.88
2024-02-06T19:24:29.860Z,8.96
2024-02-06T19:27:02.667Z,8.81
2024-02-06T19:29:34.808Z,8.80
2024-02-06T19:32:08.090Z,8.90
2024-02-06T19:37:12.876Z,8.91
2024-02-06T19:39:45.158Z,8.98
2024-02-06T19:42:19.188Z,8.98
2024-02-06T19:44:51.886Z,9.07
2024-02-06T19:47:24.760Z,9.05
2024-02-06T19:49:57.345Z,9.08
2024-02-06T19:52:30.090Z,9.14
2024-02-06T19:55:03.422Z,9.01
2024-02-06T19:57:39.890Z,9.00
2024-02-06T20:00:12.440Z,9.05
2024-02-06T20:02:46.234Z,9.06
2024-02-06T20:05:19.511Z,9.10
2024-02-06T20:07:51.929Z,9.10
2024-02-06T20:10:24.636Z,9.17
2024-02-06T20:12:56.579Z,9.09
2024-02-06T20:15:29.115Z,9.22
2024-02-06T20:18:02.145Z,9.18
2024-02-06T20:20:36.827Z,9.20
2024-02-06T20:23:09.515Z,9.29
2024-02-06T20:25:41.995Z,9.33
2024-02-06T20:28:14.644Z,9.32
2024-02-06T20:30:46.742Z,9.23
2024-02-06T20:33:20.735Z,9.34
2024-02-06T20:35:53.173Z,9.44
2024-02-06T20:38:26.958Z,9.46
2024-02-06T20:40:59.106Z,9.36
2024-02-06T20:43:31.746Z,9.40
2024-02-06T20:46:05.701Z,9.33
2024-02-06T20:48:39.335Z,9.41
2024-02-06T20:51:12.148Z,9.46
2024-02-06T20:53:46.505Z,9.45
2024-02-06T20:56:23.074Z,9.37
2024-02-06T20:58:58.849Z,9.29
2024-02-06T21:01:33.828Z,9.48
2024-02-06T21:04:07.601Z,9.39
2024-02-06T21:06:40.351Z,9.29
2024-02-06T21:09:15.998Z,9.35
2024-02-06T21:11:48.740Z,9.36
2024-02-06T21:14:20.839Z,9.43
2024-02-06T21:16:53.686Z,9.42
2024-02-06T21:19:25.880Z,9.40
2024-02-06T21:21:59.619Z,9.18
2024-02-06T21:24:32.864Z,9.52
2024-02-06T21:27:06.401Z,9.43
2024-02-06T21:29:39.964Z,9.41
2024-02-06T21:32:14.626Z,9.42
2024-02-06T21:34:47.170Z,9.45
2024-02-06T21:37:19.649Z,9.34
2024-02-06T21:39:56.355Z,9.36
2024-02-06T21:42:28.873Z,9.45
2024-02-06T21:45:05.383Z,9.49
2024-02-06T21:47:41.807Z,9.44
2024-02-06T21:50:15.204Z,9.55
2024-02-06T21:52:48.344Z,9.50
2024-02-06T21:55:20.812Z,9.57
2024-02-06T21:57:53.980Z,9.45
2024-02-06T22:00:25.906Z,9.43
2024-02-06T22:03:00.126Z,9.57
2024-02-06T22:05:34.363Z,9.50
2024-02-06T22:08:07.222Z,9.62
2024-02-06T22:10:39.802Z,9.60
2024-02-06T22:13:11.862Z,9.56
2024-02-06T22:15:44.431Z,9.55
2024-02-06T22:18:16.960Z,9.57
2024-02-06T22:20:49.970Z,9.67
2024-02-06T22:23:21.909Z,9.59
2024-02-06T22:25:54.511Z,9.59
2024-02-06T22:28:27.384Z,9.75
2024-02-06T22:30:59.385Z,9.63
2024-02-06T22:33:31.953Z,9.73
2024-02-06T22:36:04.417Z,9.72
2024-02-06T22:38:37.150Z,9.70
2024-02-06T22:41:09.620Z,9.75
2024-02-06T22:43:42.271Z,9.80
2024-02-06T22:46:14.235Z,9.72
2024-02-06T22:48:46.807Z,9.74
2024-02-06T22:55:08.145Z,9.91
2024-02-06T22:57:40.646Z,9.85
2024-02-06T23:00:20.604Z,9.90
2024-02-06T23:02:54.207Z,9.96
2024-02-06T23:05:29.651Z,9.86
2024-02-06T23:08:02.271Z,9.70
2024-02-06T23:10:34.338Z,9.96
2024-02-06T23:13:06.667Z,9.94
2024-02-06T23:15:39.077Z,9.81
2024-02-06T23:18:12.348Z,9.82
2024-02-06T23:20:45.206Z,9.92
2024-02-06T23:23:17.168Z,9.92
2024-02-06T23:25:50.068Z,10.03
2024-02-06T23:28:22.198Z,9.82
2024-02-06T23:30:54.644Z,10.00
2024-02-06T23:33:26.705Z,9.88
2024-02-06T23:35:59.217Z,9.96
2024-02-06T23:38:32.490Z,9.89
2024-02-06T23:41:04.693Z,9.92
2024-02-06T23:43:37.112Z,9.89
2024-02-06T23:46:09.123Z,10.04
2024-02-06T23:48:41.561Z,9.93
2024-02-06T23:51:13.923Z,9.90
2024-02-06T23:53:45.864Z,9.99
2024-02-06T23:56:18.392Z,9.96
2024-02-06T23:58:50.455Z,9.98
